createdAt,value
2022-07-26T00:00:10.740Z,56.83
2022-07-26T00:02:37.405Z,56.85
2022-07-26T00:05:05.797Z,56.86
2022-07-26T00:07:35.974Z,57.02
2022-07-26T00:10:06.081Z,56.52
2022-07-26T00:12:33.617Z,56.31
2022-07-26T00:15:00.392Z,56.67
2022-07-26T00:17:26.949Z,56.05
2022-07-26T00:19:53.485Z,55.32
2022-07-26T00:22:35.301Z,55.04
2022-07-26T00:25:08.019Z,55.00
2022-07-26T00:27:38.067Z,54.70
2022-07-26T00:30:08.929Z,54.73
2022-07-26T00:32:36.699Z,54.80
2022-07-26T00:35:06.506Z,54.75
2022-07-26T00:37:33.670Z,54.74
2022-07-26T00:40:00.277Z,54.88
2022-07-26T00:42:27.017Z,54.98
2022-07-26T00:44:53.520Z,54.96
2022-07-26T00:47:20.035Z,55.16
2022-07-26T00:49:46.678Z,55.41
2022-07-26T00:52:13.264Z,55.55
2022-07-26T00:54:43.851Z,55.66
2022-07-26T00:57:10.465Z,55.75
2022-07-26T00:59:37.016Z,55.73
2022-07-26T01:02:06.397Z,55.63
2022-07-26T01:04:34.195Z,55.38
2022-07-26T01:07:02.207Z,55.59
2022-07-26T01:09:29.530Z,55.49
2022-07-26T01:11:59.320Z,55.75
2022-07-26T01:14:26.303Z,56.00
2022-07-26T01:16:54.117Z,56.01
2022-07-26T01:19:21.544Z,55.94
2022-07-26T01:21:49.619Z,56.06
2022-07-26T01:24:16.196Z,56.11
2022-07-26T01:26:42.841Z,56.34
2022-07-26T01:29:09.711Z,56.72
2022-07-26T01:31:36.454Z,56.91
2022-07-26T01:34:03.463Z,57.45
2022-07-26T01:36:30.055Z,57.89
2022-07-26T01:38:56.642Z,58.20
2022-07-26T01:41:37.795Z,58.50
2022-07-26T01:44:07.951Z,58.54
2022-07-26T01:46:35.560Z,58.73
2022-07-26T01:49:02.585Z,59.18
2022-07-26T01:51:29.480Z,59.34
2022-07-26T01:53:56.468Z,59.59
2022-07-26T01:56:22.987Z,59.96
2022-07-26T01:58:50.136Z,60.19
2022-07-26T02:01:16.742Z,60.09
2022-07-26T02:04:03.210Z,59.91
2022-07-26T02:06:29.727Z,60.07
2022-07-26T02:08:56.238Z,60.16
2022-07-26T02:11:22.754Z,60.50
2022-07-26T02:13:53.075Z,60.59
2022-07-26T02:16:20.058Z,60.52
2022-07-26T02:18:46.612Z,60.52
2022-07-26T02:21:13.141Z,60.56
2022-07-26T02:23:41.771Z,60.92
2022-07-26T02:26:09.310Z,61.00
2022-07-26T02:28:35.880Z,61.11
2022-07-26T02:31:02.522Z,60.78
2022-07-26T02:33:29.107Z,61.03
2022-07-26T02:35:55.660Z,60.73
2022-07-26T02:38:22.501Z,60.86
2022-07-26T02:40:52.636Z,60.87
2022-07-26T02:43:19.882Z,60.60
2022-07-26T02:46:01.130Z,60.70
2022-07-26T02:48:32.280Z,60.96
2022-07-26T02:50:59.263Z,61.15
2022-07-26T02:53:25.785Z,61.00
2022-07-26T02:55:52.308Z,61.56
2022-07-26T02:58:21.403Z,61.48
2022-07-26T03:00:48.014Z,61.92
2022-07-26T03:03:14.585Z,61.54
2022-07-26T03:05:41.535Z,62.02
2022-07-26T03:08:08.519Z,61.98
2022-07-26T03:10:35.015Z,61.77
2022-07-26T03:13:02.014Z,61.69
2022-07-26T03:15:28.616Z,61.91
2022-07-26T03:17:55.377Z,62.04
2022-07-26T03:20:22.128Z,61.88
2022-07-26T03:22:48.663Z,62.01
2022-07-26T03:25:15.415Z,62.36
2022-07-26T03:27:41.946Z,62.53
2022-07-26T03:30:10.346Z,62.49
2022-07-26T03:32:36.875Z,62.10
2022-07-26T03:35:04.399Z,61.84
2022-07-26T03:37:46.228Z,61.96
2022-07-26T03:40:17.684Z,62.41
2022-07-26T03:42:48.054Z,62.48
2022-07-26T03:45:16.014Z,62.25
2022-07-26T03:47:43.527Z,62.19
2022-07-26T03:50:13.457Z,62.83
2022-07-26T03:52:40.493Z,62.75
2022-07-26T03:55:26.433Z,62.91
2022-07-26T03:57:53.551Z,63.02
2022-07-26T04:00:20.290Z,62.58
2022-07-26T04:02:46.894Z,62.26
2022-07-26T04:05:13.485Z,62.55
2022-07-26T04:07:52.714Z,62.70
2022-07-26T04:10:21.797Z,62.66
2022-07-26T04:12:51.689Z,62.77
2022-07-26T04:15:19.124Z,62.61
2022-07-26T04:17:48.079Z,62.57
2022-07-26T04:20:15.466Z,62.49
2022-07-26T04:22:42.243Z,62.26
2022-07-26T04:25:09.814Z,62.08
2022-07-26T04:27:37.419Z,62.12
2022-07-26T04:30:09.647Z,62.10
2022-07-26T04:32:39.242Z,62.58
2022-07-26T04:35:06.333Z,62.29
2022-07-26T04:37:42.748Z,62.23
2022-07-26T04:40:11.479Z,63.93
2022-07-26T04:42:39.598Z,62.80
2022-07-26T04:45:08.608Z,62.59
2022-07-26T04:47:36.219Z,62.30
2022-07-26T04:50:04.560Z,62.34
2022-07-26T04:52:31.083Z,62.43
2022-07-26T04:54:59.169Z,62.13
2022-07-26T04:57:25.711Z,62.30
2022-07-26T05:00:03.659Z,62.34
2022-07-26T05:02:39.084Z,62.68
2022-07-26T05:05:07.235Z,62.70
2022-07-26T05:07:45.756Z,62.83
2022-07-26T05:10:15.731Z,62.91
2022-07-26T05:12:42.667Z,62.78
2022-07-26T05:15:13.911Z,62.87
2022-07-26T05:17:43.196Z,62.81
2022-07-26T05:20:14.283Z,62.74
2022-07-26T05:22:41.557Z,62.87
2022-07-26T05:25:09.128Z,62.69
2022-07-26T05:27:35.967Z,62.48
2022-07-26T05:30:02.942Z,62.58
2022-07-26T05:32:29.504Z,62.73
2022-07-26T05:34:56.037Z,62.56
2022-07-26T05:37:22.568Z,62.64
2022-07-26T05:39:49.121Z,62.44
2022-07-26T05:42:15.634Z,62.13
2022-07-26T05:44:42.774Z,62.06
2022-07-26T05:47:10.008Z,62.28
2022-07-26T05:49:39.911Z,62.31
2022-07-26T05:52:07.551Z,62.32
2022-07-26T05:54:34.203Z,62.32
2022-07-26T05:57:00.786Z,62.50
2022-07-26T05:59:27.549Z,62.26
2022-07-26T06:01:56.535Z,62.38
2022-07-26T06:04:27.195Z,62.42
2022-07-26T06:06:55.139Z,62.36
2022-07-26T06:09:24.779Z,62.29
2022-07-26T06:11:52.113Z,62.28
2022-07-26T06:14:20.485Z,62.25
2022-07-26T06:16:47.729Z,62.34
2022-07-26T06:19:15.292Z,62.19
2022-07-26T06:21:48.039Z,62.12
2022-07-26T06:24:14.678Z,62.28
2022-07-26T06:26:41.261Z,61.87
2022-07-26T06:29:08.019Z,61.71
2022-07-26T06:31:34.916Z,61.48
2022-07-26T06:34:01.823Z,61.40
2022-07-26T06:36:30.785Z,61.30
2022-07-26T06:38:58.842Z,61.03
2022-07-26T06:41:25.882Z,60.89
2022-07-26T06:43:52.900Z,61.03
2022-07-26T06:46:21.007Z,61.01
2022-07-26T06:48:52.660Z,61.18
2022-07-26T06:51:19.870Z,60.93
2022-07-26T06:53:46.558Z,60.98
2022-07-26T06:56:14.840Z,61.02
2022-07-26T06:58:42.604Z,60.94
2022-07-26T07:01:09.424Z,61.03
2022-07-26T07:03:36.263Z,60.81
2022-07-26T07:06:03.180Z,60.85
2022-07-26T07:08:29.712Z,60.38
2022-07-26T07:10:56.680Z,60.52
2022-07-26T07:13:23.362Z,60.70
2022-07-26T07:15:50.013Z,60.42
2022-07-26T07:18:16.621Z,60.48
2022-07-26T07:20:43.131Z,60.35
2022-07-26T07:23:09.727Z,60.26
2022-07-26T07:25:36.231Z,60.09
2022-07-26T07:28:03.007Z,60.07
2022-07-26T07:30:29.671Z,59.84
2022-07-26T07:32:56.563Z,59.73
2022-07-26T07:35:23.572Z,59.83
2022-07-26T07:37:53.197Z,59.87
2022-07-26T07:40:22.684Z,59.72
2022-07-26T07:42:49.492Z,59.96
2022-07-26T07:45:16.014Z,60.02
2022-07-26T07:47:42.653Z,59.91
2022-07-26T07:50:09.335Z,60.03
2022-07-26T07:52:35.918Z,60.28
2022-07-26T07:55:28.748Z,60.17
2022-07-26T07:57:49.849Z,60.26
2022-07-26T08:00:19.155Z,60.48
2022-07-26T08:02:46.894Z,60.59
2022-07-26T08:05:15.579Z,60.61
2022-07-26T08:07:42.650Z,60.82
2022-07-26T08:10:10.101Z,60.78
2022-07-26T08:12:36.916Z,60.91
2022-07-26T08:15:07.508Z,60.66
2022-07-26T08:17:35.591Z,60.58
2022-07-26T08:20:08.937Z,60.83
2022-07-26T08:22:41.979Z,60.50
2022-07-26T08:25:09.614Z,60.49
2022-07-26T08:27:40.912Z,60.38
2022-07-26T08:30:08.926Z,60.42
2022-07-26T08:32:35.656Z,60.29
2022-07-26T08:35:17.723Z,60.02
2022-07-26T08:37:46.787Z,60.45
2022-07-26T08:40:14.029Z,60.55
2022-07-26T08:42:40.686Z,60.77
2022-07-26T08:45:08.058Z,60.49
2022-07-26T08:47:39.919Z,60.94
2022-07-26T08:50:12.851Z,60.48
2022-07-26T08:52:43.460Z,60.25
2022-07-26T08:55:15.452Z,60.12
2022-07-26T08:57:42.236Z,59.99
2022-07-26T09:00:31.855Z,59.63
2022-07-26T09:03:02.303Z,59.67
2022-07-26T09:05:33.560Z,59.34
2022-07-26T09:08:21.385Z,58.78
2022-07-26T09:10:47.943Z,58.65
2022-07-26T09:13:16.641Z,58.41
2022-07-26T09:15:43.357Z,59.00
2022-07-26T09:18:28.290Z,58.69
2022-07-26T09:20:55.534Z,59.00
2022-07-26T09:23:22.408Z,59.22
2022-07-26T09:25:49.067Z,58.82
2022-07-26T09:28:29.469Z,58.59
2022-07-26T09:31:05.074Z,58.24
2022-07-26T09:33:51.519Z,58.10
2022-07-26T09:36:19.847Z,58.02
2022-07-26T09:38:50.946Z,58.17
2022-07-26T09:41:33.911Z,57.57
2022-07-26T09:44:06.002Z,57.06
2022-07-26T09:46:35.691Z,56.97
2022-07-26T09:49:26.337Z,56.42
2022-07-26T09:51:59.299Z,56.17
2022-07-26T09:54:35.507Z,55.35
2022-07-26T09:57:02.909Z,56.04
2022-07-26T09:59:30.315Z,56.48
2022-07-26T10:01:59.264Z,56.20
2022-07-26T10:04:26.694Z,55.95
2022-07-26T10:06:55.736Z,55.11
2022-07-26T10:09:23.192Z,54.63
2022-07-26T10:11:57.872Z,53.52
2022-07-26T10:14:33.314Z,53.52
2022-07-26T10:17:29.253Z,53.33
2022-07-26T10:20:19.401Z,53.55
2022-07-26T10:22:51.337Z,53.11
2022-07-26T10:25:17.778Z,53.53
2022-07-26T10:27:51.683Z,53.37
2022-07-26T10:30:18.189Z,53.48
2022-07-26T10:32:56.475Z,53.37
2022-07-26T10:35:43.168Z,53.07
2022-07-26T10:38:10.797Z,54.03
2022-07-26T10:40:55.223Z,53.69
2022-07-26T10:46:20.395Z,54.12
2022-07-26T10:49:05.064Z,53.28
2022-07-26T10:51:40.938Z,53.15
2022-07-26T10:54:13.907Z,53.30
2022-07-26T10:56:41.131Z,53.33
2022-07-26T10:59:08.308Z,53.55
2022-07-26T11:01:41.107Z,54.05
2022-07-26T11:04:22.442Z,53.72
2022-07-26T11:06:49.313Z,53.68
2022-07-26T11:09:18.406Z,53.34
2022-07-26T11:11:47.636Z,52.40
2022-07-26T11:14:18.021Z,51.82
2022-07-26T11:16:48.917Z,51.69
2022-07-26T11:19:19.781Z,51.50
2022-07-26T11:21:53.612Z,51.36
2022-07-26T11:24:21.924Z,51.36
2022-07-26T11:26:48.638Z,51.06
2022-07-26T11:29:17.524Z,50.58
2022-07-26T11:31:52.065Z,50.42
2022-07-26T11:34:30.843Z,50.97
2022-07-26T11:37:00.329Z,51.39
2022-07-26T11:39:31.920Z,50.88
2022-07-26T11:42:05.344Z,49.84
2022-07-26T11:44:33.243Z,49.86
2022-07-26T11:47:11.998Z,50.14
2022-07-26T11:50:00.659Z,50.35
2022-07-26T11:52:30.856Z,49.74
2022-07-26T11:54:57.394Z,49.74
2022-07-26T11:57:30.669Z,49.40
2022-07-26T11:59:59.884Z,49.03
2022-07-26T12:02:28.071Z,48.75
2022-07-26T12:05:19.868Z,48.02
2022-07-26T12:08:04.001Z,48.20
2022-07-26T12:10:30.918Z,47.75
2022-07-26T12:13:15.742Z,46.47
2022-07-26T12:15:52.662Z,47.44
2022-07-26T12:18:30.814Z,47.53
2022-07-26T12:21:07.965Z,47.73
2022-07-26T12:23:54.941Z,47.25
2022-07-26T12:26:26.908Z,47.50
2022-07-26T12:28:55.542Z,48.09
2022-07-26T12:31:32.204Z,47.74
2022-07-26T12:33:59.438Z,48.07
2022-07-26T12:36:29.095Z,47.80
2022-07-26T12:39:00.956Z,48.00
2022-07-26T12:41:39.172Z,47.90
2022-07-26T12:44:09.190Z,47.47
2022-07-26T12:46:36.638Z,46.26
2022-07-26T12:49:04.507Z,46.19
2022-07-26T12:51:31.301Z,45.73
2022-07-26T12:53:58.076Z,45.80
2022-07-26T12:56:24.584Z,45.66
2022-07-26T12:58:51.164Z,45.86
2022-07-26T13:01:17.770Z,45.87
2022-07-26T13:03:44.516Z,46.10
2022-07-26T13:06:11.071Z,46.23
2022-07-26T13:08:37.655Z,46.20
2022-07-26T13:11:04.189Z,46.63
2022-07-26T13:13:30.774Z,46.33
2022-07-26T13:15:57.303Z,46.44
2022-07-26T13:18:23.839Z,46.56
2022-07-26T13:20:50.979Z,46.71
2022-07-26T13:23:21.818Z,46.60
2022-07-26T13:25:50.797Z,46.54
2022-07-26T13:28:17.582Z,46.83
2022-07-26T13:30:44.951Z,46.56
2022-07-26T13:33:11.879Z,46.32
2022-07-26T13:35:41.056Z,46.12
2022-07-26T13:38:08.460Z,46.44
2022-07-26T13:40:35.154Z,46.61
2022-07-26T13:43:02.871Z,46.85
2022-07-26T13:45:29.781Z,46.95
2022-07-26T13:47:58.859Z,47.39
2022-07-26T13:50:26.681Z,47.92
2022-07-26T13:52:56.097Z,48.00
2022-07-26T13:55:22.905Z,48.40
2022-07-26T13:57:55.677Z,48.79
2022-07-26T14:00:23.113Z,49.25
2022-07-26T14:02:49.805Z,49.81
2022-07-26T14:05:16.498Z,50.40
2022-07-26T14:07:43.474Z,50.22
2022-07-26T14:10:10.454Z,50.18
2022-07-26T14:12:38.045Z,50.82
2022-07-26T14:15:10.895Z,52.04
2022-07-26T14:17:40.173Z,53.18
2022-07-26T14:20:07.386Z,53.81
2022-07-26T14:22:34.050Z,54.40
2022-07-26T14:25:00.593Z,54.34
2022-07-26T14:27:27.178Z,54.10
2022-07-26T14:29:53.692Z,54.21
2022-07-26T14:32:22.134Z,54.19
2022-07-26T14:34:49.670Z,54.54
2022-07-26T14:37:41.656Z,54.54
2022-07-26T14:40:05.424Z,56.71
2022-07-26T14:42:31.927Z,56.04
2022-07-26T14:44:58.466Z,56.43
2022-07-26T14:47:25.141Z,56.73
2022-07-26T14:49:51.718Z,56.66
2022-07-26T14:52:18.412Z,55.57
2022-07-26T14:54:44.997Z,56.26
2022-07-26T14:57:11.554Z,56.15
2022-07-26T14:59:38.158Z,55.62
2022-07-26T15:02:06.058Z,55.03
2022-07-26T15:04:32.933Z,53.74
2022-07-26T15:06:59.992Z,53.21
2022-07-26T15:09:26.691Z,54.46
2022-07-26T15:11:53.374Z,54.52
2022-07-26T15:14:20.072Z,54.16
2022-07-26T15:16:46.721Z,53.63
2022-07-26T15:19:13.505Z,53.37
2022-07-26T15:21:40.091Z,52.95
2022-07-26T15:24:07.484Z,52.77
2022-07-26T15:26:34.237Z,52.22
2022-07-26T15:29:00.801Z,52.41
2022-07-26T15:31:37.281Z,52.58
2022-07-26T15:34:07.274Z,52.87
2022-07-26T15:36:34.243Z,52.98
2022-07-26T15:39:14.683Z,52.72
2022-07-26T15:41:43.205Z,52.43
2022-07-26T15:44:11.511Z,52.46
2022-07-26T15:46:39.697Z,51.71
2022-07-26T15:49:07.600Z,51.22
2022-07-26T15:51:34.478Z,50.70
2022-07-26T15:54:03.169Z,49.91
2022-07-26T15:56:29.952Z,49.24
2022-07-26T15:58:56.635Z,49.10
2022-07-26T16:01:23.427Z,49.04
2022-07-26T16:03:50.508Z,49.33
2022-07-26T16:06:17.644Z,49.45
2022-07-26T16:09:05.889Z,49.23
2022-07-26T16:11:31.250Z,49.04
2022-07-26T16:14:01.195Z,48.82
2022-07-26T16:16:32.042Z,48.23
2022-07-26T16:18:58.776Z,48.52
2022-07-26T16:21:25.663Z,48.46
2022-07-26T16:23:52.199Z,48.61
2022-07-26T16:26:19.188Z,48.26
2022-07-26T16:28:46.036Z,48.29
2022-07-26T16:31:12.660Z,48.37
2022-07-26T16:33:46.077Z,48.20
2022-07-26T16:36:12.828Z,48.12
2022-07-26T16:38:39.402Z,48.45
2022-07-26T16:41:05.949Z,48.65
2022-07-26T16:43:32.665Z,48.96
2022-07-26T16:45:59.198Z,48.95
2022-07-26T16:48:25.990Z,49.12
2022-07-26T16:50:52.723Z,48.87
2022-07-26T16:53:19.266Z,48.84
2022-07-26T16:55:47.012Z,49.00
2022-07-26T16:58:13.521Z,48.88
2022-07-26T17:00:40.218Z,49.13
2022-07-26T17:03:06.760Z,49.01
2022-07-26T17:05:33.401Z,49.19
2022-07-26T17:07:59.966Z,49.13
2022-07-26T17:10:26.551Z,48.63
2022-07-26T17:12:54.108Z,48.56
2022-07-26T17:15:20.726Z,48.17
2022-07-26T17:17:48.955Z,48.20
2022-07-26T17:20:16.215Z,48.32
2022-07-26T17:22:42.750Z,47.89
2022-07-26T17:25:09.776Z,48.12
2022-07-26T17:27:36.691Z,48.03
2022-07-26T17:30:07.098Z,48.16
2022-07-26T17:32:34.995Z,48.45
2022-07-26T17:35:01.939Z,48.58
2022-07-26T17:37:28.574Z,49.15
2022-07-26T17:39:56.533Z,49.47
2022-07-26T17:42:24.265Z,50.14
2022-07-26T17:44:51.369Z,49.92
2022-07-26T17:47:29.708Z,50.03
2022-07-26T17:50:34.734Z,50.31
2022-07-26T17:52:50.428Z,50.21
2022-07-26T17:55:18.984Z,50.30
2022-07-26T17:57:47.545Z,50.37
2022-07-26T18:00:15.146Z,50.53
2022-07-26T18:02:41.773Z,50.45
2022-07-26T18:05:08.986Z,50.60
2022-07-26T18:07:35.564Z,50.79
2022-07-26T18:10:02.220Z,51.17
2022-07-26T18:12:30.450Z,51.30
2022-07-26T18:14:57.079Z,51.84
2022-07-26T18:17:23.694Z,52.01
2022-07-26T18:19:50.446Z,52.00
2022-07-26T18:22:16.966Z,52.23
2022-07-26T18:24:43.494Z,52.23
2022-07-26T18:27:10.035Z,51.97
2022-07-26T18:29:36.584Z,51.89
2022-07-26T18:32:03.236Z,51.92
2022-07-26T18:34:29.830Z,51.77
2022-07-26T18:36:56.542Z,52.03
2022-07-26T18:39:23.131Z,52.04
2022-07-26T18:41:49.767Z,51.82
2022-07-26T18:44:16.372Z,51.71
2022-07-26T18:46:42.936Z,51.66
2022-07-26T18:49:10.085Z,52.04
2022-07-26T18:51:48.881Z,51.99
2022-07-26T18:54:16.529Z,52.10
2022-07-26T18:56:43.252Z,52.22
2022-07-26T18:59:10.399Z,52.36
2022-07-26T19:01:37.196Z,52.38
2022-07-26T19:04:06.966Z,52.96
2022-07-26T19:06:34.934Z,53.45
2022-07-26T19:09:01.798Z,53.42
2022-07-26T19:11:30.096Z,53.89
2022-07-26T19:13:56.659Z,54.50
2022-07-26T19:16:23.338Z,54.38
2022-07-26T19:18:53.823Z,54.25
2022-07-26T19:21:23.561Z,54.13
2022-07-26T19:23:50.313Z,54.16
2022-07-26T19:26:17.056Z,54.78
2022-07-26T19:28:43.659Z,55.23
2022-07-26T19:31:10.632Z,55.82
2022-07-26T19:33:37.195Z,55.64
2022-07-26T19:36:03.922Z,55.98
2022-07-26T19:38:32.903Z,55.96
2022-07-26T19:41:00.836Z,55.79
2022-07-26T19:43:27.834Z,55.79
2022-07-26T19:45:54.924Z,55.63
2022-07-26T19:48:21.540Z,55.35
2022-07-26T19:50:48.623Z,55.49
2022-07-26T19:53:15.215Z,55.51
2022-07-26T19:55:42.405Z,55.92
2022-07-26T19:58:09.261Z,55.89
2022-07-26T20:00:36.098Z,56.33
2022-07-26T20:03:02.929Z,56.87
2022-07-26T20:05:29.588Z,57.38
2022-07-26T20:07:56.488Z,57.74
2022-07-26T20:10:24.568Z,58.27
2022-07-26T20:12:53.924Z,58.33
2022-07-26T20:15:22.394Z,58.41
2022-07-26T20:17:49.165Z,58.38
2022-07-26T20:20:17.732Z,58.52
2022-07-26T20:22:44.280Z,58.93
2022-07-26T20:25:11.208Z,59.20
2022-07-26T20:27:38.124Z,59.27
2022-07-26T20:30:06.612Z,59.51
2022-07-26T20:32:33.213Z,59.83
2022-07-26T20:34:59.728Z,60.14
2022-07-26T20:37:26.321Z,59.85
2022-07-26T20:39:52.814Z,60.09
2022-07-26T20:42:21.963Z,60.58
2022-07-26T20:44:48.830Z,60.77
2022-07-26T20:47:15.443Z,60.67
2022-07-26T20:49:42.000Z,60.77
2022-07-26T20:52:08.536Z,61.01
2022-07-26T20:54:35.196Z,61.17
2022-07-26T20:57:04.341Z,61.23
2022-07-26T20:59:32.357Z,61.21
2022-07-26T21:01:59.063Z,61.51
2022-07-26T21:04:25.847Z,61.79
2022-07-26T21:06:52.421Z,62.16
2022-07-26T21:09:19.115Z,61.85
2022-07-26T21:11:45.689Z,61.53
2022-07-26T21:14:12.222Z,61.10
2022-07-26T21:16:38.979Z,60.93
2022-07-26T21:19:05.973Z,60.89
2022-07-26T21:21:34.063Z,61.77
2022-07-26T21:24:00.646Z,61.58
2022-07-26T21:26:27.156Z,62.17
2022-07-26T21:28:53.723Z,62.41
2022-07-26T21:31:20.955Z,62.67
2022-07-26T21:33:47.496Z,62.92
2022-07-26T21:36:14.290Z,62.89
2022-07-26T21:38:42.007Z,62.94
2022-07-26T21:41:08.590Z,62.23
2022-07-26T21:43:37.128Z,61.91
2022-07-26T21:46:05.725Z,62.29
2022-07-26T21:48:34.331Z,62.56
2022-07-26T21:51:00.929Z,62.87
2022-07-26T21:53:27.428Z,63.30
2022-07-26T21:55:53.951Z,63.63
2022-07-26T21:58:20.474Z,63.84
2022-07-26T22:00:47.184Z,63.79
2022-07-26T22:03:13.843Z,64.04
2022-07-26T22:05:43.477Z,63.70
2022-07-26T22:08:14.498Z,63.40
2022-07-26T22:10:45.035Z,63.42
2022-07-26T22:13:13.029Z,63.81
2022-07-26T22:15:39.895Z,64.09
2022-07-26T22:18:09.503Z,63.90
2022-07-26T22:20:36.424Z,64.17
2022-07-26T22:23:09.264Z,64.65
2022-07-26T22:25:38.138Z,65.11
2022-07-26T22:28:07.537Z,65.63
2022-07-26T22:30:34.378Z,65.44
2022-07-26T22:33:04.074Z,65.36
2022-07-26T22:35:36.257Z,65.03
2022-07-26T22:38:07.817Z,64.99
2022-07-26T22:40:35.951Z,65.06
2022-07-26T22:43:03.078Z,65.24
2022-07-26T22:45:30.822Z,65.25
2022-07-26T22:47:58.272Z,65.12
2022-07-26T22:50:25.572Z,65.07
2022-07-26T22:52:52.326Z,65.05
2022-07-26T22:55:20.133Z,65.43
2022-07-26T22:57:47.314Z,65.29
2022-07-26T23:00:17.830Z,65.39
2022-07-26T23:02:45.276Z,65.69
2022-07-26T23:05:14.329Z,65.69
2022-07-26T23:07:41.230Z,65.71
2022-07-26T23:10:11.262Z,65.64
2022-07-26T23:12:38.818Z,65.53
2022-07-26T23:15:06.516Z,66.03
2022-07-26T23:17:35.713Z,66.17
2022-07-26T23:20:07.994Z,66.46
2022-07-26T23:22:35.249Z,66.21
2022-07-26T23:25:01.796Z,66.57
2022-07-26T23:27:28.388Z,66.31
2022-07-26T23:29:55.384Z,66.30
2022-07-26T23:32:22.042Z,66.65
2022-07-26T23:34:48.642Z,66.47
2022-07-26T23:37:15.192Z,66.53
2022-07-26T23:39:41.779Z,66.89
2022-07-26T23:42:08.493Z,66.30
2022-07-26T23:44:35.017Z,66.14
2022-07-26T23:47:01.775Z,65.96
2022-07-26T23:49:28.416Z,65.29
2022-07-26T23:51:55.039Z,65.22
2022-07-26T23:54:21.609Z,65.06
2022-07-26T23:56:48.314Z,65.30
2022-07-26T23:59:15.372Z,65.54
